Kingston, Washington
Current Conditions -  °F | °C
As of 12:53 PM on Thursday 18 Dec 2014 (Local Time) from KPAE Reporting Station
Overcast Overcast  
Wind Chill: 42°   Ceiling: 4700
Heat Index: 47°   Visibility: 10mi
Dew Point: 41°   Wind: 10mph
Humidity: 80%   Direction: 120°ESE
Pressure: 29.82"   Gusts: NA
Location:  47.8°N, 122.5°W
Report Text: KPAE 182053Z 12009KT 10SM OVC047 08/05 A2982 RMK AO2 RAE09 SLP102 P0000 60001 T00830050 58031
Loading
Personal Weather Stations






























Interactive Weather Map New forecast layout! Learn more

10-Day Weather Forecast

Advertisements
Track Severe Weather on mobile